sensor_id;sensor_type;location;lat;lon;timestamp;pressure;altitude;pressure_sealevel;temperature;humidity
62055;BME280;48653;51.742;-1.256;2024-01-30T00:03:48;101249.41;;;10.30;58.79
62055;BME280;48653;51.742;-1.256;2024-01-30T00:06:13;101254.34;;;10.34;58.13
62055;BME280;48653;51.742;-1.256;2024-01-30T00:08:38;101244.94;;;9.82;59.12
62055;BME280;48653;51.742;-1.256;2024-01-30T00:11:04;101250.10;;;9.97;59.90
62055;BME280;48653;51.742;-1.256;2024-01-30T00:13:28;101264.75;;;9.64;60.36
62055;BME280;48653;51.742;-1.256;2024-01-30T00:15:53;101260.58;;;10.62;58.49
62055;BME280;48653;51.742;-1.256;2024-01-30T00:18:18;101260.45;;;10.20;58.29
62055;BME280;48653;51.742;-1.256;2024-01-30T00:20:43;101276.79;;;9.64;60.30
62055;BME280;48653;51.742;-1.256;2024-01-30T00:23:09;101286.24;;;9.31;61.01
62055;BME280;48653;51.742;-1.256;2024-01-30T00:25:34;101284.93;;;9.61;60.08
62055;BME280;48653;51.742;-1.256;2024-01-30T00:27:59;101287.16;;;9.75;59.42
62055;BME280;48653;51.742;-1.256;2024-01-30T00:30:25;101279.83;;;9.43;60.40
62055;BME280;48653;51.742;-1.256;2024-01-30T00:32:49;101286.23;;;9.14;61.58
62055;BME280;48653;51.742;-1.256;2024-01-30T00:35:15;101290.46;;;9.17;60.99
62055;BME280;48653;51.742;-1.256;2024-01-30T00:37:39;101297.67;;;8.54;63.53
62055;BME280;48653;51.742;-1.256;2024-01-30T00:40:06;101295.96;;;8.11;64.84
62055;BME280;48653;51.742;-1.256;2024-01-30T00:42:30;101301.11;;;8.44;63.75
62055;BME280;48653;51.742;-1.256;2024-01-30T00:44:55;101289.74;;;8.49;63.37
62055;BME280;48653;51.742;-1.256;2024-01-30T00:47:20;101273.77;;;8.51;63.97
62055;BME280;48653;51.742;-1.256;2024-01-30T00:49:46;101273.43;;;8.66;63.24
62055;BME280;48653;51.742;-1.256;2024-01-30T00:52:10;101271.30;;;8.90;62.55
62055;BME280;48653;51.742;-1.256;2024-01-30T00:54:35;101285.57;;;8.52;63.46
62055;BME280;48653;51.742;-1.256;2024-01-30T00:57:00;101294.84;;;8.66;64.03
62055;BME280;48653;51.742;-1.256;2024-01-30T00:59:25;101301.28;;;8.19;65.15
62055;BME280;48653;51.742;-1.256;2024-01-30T01:01:50;101314.00;;;8.35;64.72
62055;BME280;48653;51.742;-1.256;2024-01-30T01:04:16;101308.94;;;8.76;64.20
62055;BME280;48653;51.742;-1.256;2024-01-30T01:06:40;101313.54;;;8.66;64.17
62055;BME280;48653;51.742;-1.256;2024-01-30T01:09:05;101315.47;;;7.82;66.65
62055;BME280;48653;51.742;-1.256;2024-01-30T01:11:31;101310.67;;;8.35;66.40
62055;BME280;48653;51.742;-1.256;2024-01-30T01:13:56;101303.75;;;8.45;64.78
62055;BME280;48653;51.742;-1.256;2024-01-30T01:16:22;101301.01;;;9.18;63.34
62055;BME280;48653;51.742;-1.256;2024-01-30T01:18:46;101303.75;;;7.73;65.92
62055;BME280;48653;51.742;-1.256;2024-01-30T01:21:12;101311.96;;;8.99;63.85
62055;BME280;48653;51.742;-1.256;2024-01-30T01:23:37;101305.23;;;9.76;61.39
62055;BME280;48653;51.742;-1.256;2024-01-30T01:26:02;101308.93;;;9.16;63.04
62055;BME280;48653;51.742;-1.256;2024-01-30T01:28:27;101311.15;;;9.01;63.50
62055;BME280;48653;51.742;-1.256;2024-01-30T01:30:52;101308.48;;;9.93;60.36
62055;BME280;48653;51.742;-1.256;2024-01-30T01:33:17;101313.60;;;10.00;59.87
62055;BME280;48653;51.742;-1.256;2024-01-30T01:35:42;101310.82;;;8.96;62.16
62055;BME280;48653;51.742;-1.256;2024-01-30T01:38:07;101318.61;;;8.73;63.19
62055;BME280;48653;51.742;-1.256;2024-01-30T01:40:32;101314.34;;;9.39;60.90
62055;BME280;48653;51.742;-1.256;2024-01-30T01:42:57;101319.23;;;9.74;60.29
62055;BME280;48653;51.742;-1.256;2024-01-30T01:45:22;101316.81;;;10.31;59.44
62055;BME280;48653;51.742;-1.256;2024-01-30T01:47:49;101312.36;;;9.11;61.98
62055;BME280;48653;51.742;-1.256;2024-01-30T01:50:13;101309.87;;;8.81;62.03
62055;BME280;48653;51.742;-1.256;2024-01-30T01:52:38;101305.16;;;8.73;62.10
62055;BME280;48653;51.742;-1.256;2024-01-30T01:55:03;101299.62;;;9.19;60.89
62055;BME280;48653;51.742;-1.256;2024-01-30T01:57:27;101303.13;;;9.21;60.77
62055;BME280;48653;51.742;-1.256;2024-01-30T01:59:52;101302.68;;;9.50;60.22
62055;BME280;48653;51.742;-1.256;2024-01-30T02:02:19;101301.98;;;8.94;61.28
62055;BME280;48653;51.742;-1.256;2024-01-30T02:04:43;101301.71;;;9.67;59.89
62055;BME280;48653;51.742;-1.256;2024-01-30T02:07:08;101299.94;;;10.00;59.08
62055;BME280;48653;51.742;-1.256;2024-01-30T02:09:33;101304.63;;;9.54;60.11
62055;BME280;48653;51.742;-1.256;2024-01-30T02:11:58;101301.02;;;9.81;58.95
62055;BME280;48653;51.742;-1.256;2024-01-30T02:14:23;101300.49;;;9.95;59.28
62055;BME280;48653;51.742;-1.256;2024-01-30T02:16:48;101304.83;;;10.26;58.73
62055;BME280;48653;51.742;-1.256;2024-01-30T02:19:14;101306.73;;;9.98;59.12
62055;BME280;48653;51.742;-1.256;2024-01-30T02:21:38;101304.07;;;9.89;58.81
62055;BME280;48653;51.742;-1.256;2024-01-30T02:24:04;101304.55;;;10.21;58.59
62055;BME280;48653;51.742;-1.256;2024-01-30T02:26:28;101301.39;;;9.97;59.29
62055;BME280;48653;51.742;-1.256;2024-01-30T02:28:53;101297.81;;;10.48;57.59
62055;BME280;48653;51.742;-1.256;2024-01-30T02:31:19;101308.72;;;10.17;58.36
62055;BME280;48653;51.742;-1.256;2024-01-30T02:33:43;101308.81;;;9.40;60.86
62055;BME280;48653;51.742;-1.256;2024-01-30T02:36:08;101306.68;;;9.95;59.08
62055;BME280;48653;51.742;-1.256;2024-01-30T02:38:34;101306.19;;;9.44;60.29
62055;BME280;48653;51.742;-1.256;2024-01-30T02:40:58;101307.60;;;8.94;61.35
62055;BME280;48653;51.742;-1.256;2024-01-30T02:43:24;101306.83;;;9.06;61.34
62055;BME280;48653;51.742;-1.256;2024-01-30T02:45:49;101309.91;;;9.81;59.47
62055;BME280;48653;51.742;-1.256;2024-01-30T02:48:14;101310.42;;;10.22;58.40
62055;BME280;48653;51.742;-1.256;2024-01-30T02:50:40;101311.84;;;9.74;59.00
62055;BME280;48653;51.742;-1.256;2024-01-30T02:53:04;101312.00;;;9.64;60.02
62055;BME280;48653;51.742;-1.256;2024-01-30T02:55:29;101310.73;;;10.04;58.90
62055;BME280;48653;51.742;-1.256;2024-01-30T02:57:54;101316.70;;;9.72;60.37
62055;BME280;48653;51.742;-1.256;2024-01-30T03:00:20;101312.78;;;10.09;58.49
62055;BME280;48653;51.742;-1.256;2024-01-30T03:02:44;101314.29;;;10.64;57.13
62055;BME280;48653;51.742;-1.256;2024-01-30T03:05:09;101324.62;;;9.65;58.55
62055;BME280;48653;51.742;-1.256;2024-01-30T03:07:34;101322.03;;;9.88;58.63
62055;BME280;48653;51.742;-1.256;2024-01-30T03:10:00;101322.97;;;10.34;58.15
62055;BME280;48653;51.742;-1.256;2024-01-30T03:12:24;101323.96;;;10.71;56.83
62055;BME280;48653;51.742;-1.256;2024-01-30T03:14:49;101323.09;;;9.94;59.09
62055;BME280;48653;51.742;-1.256;2024-01-30T03:17:15;101322.82;;;9.75;59.17
62055;BME280;48653;51.742;-1.256;2024-01-30T03:19:40;101322.28;;;9.93;58.50
62055;BME280;48653;51.742;-1.256;2024-01-30T03:22:05;101319.26;;;10.44;57.49
62055;BME280;48653;51.742;-1.256;2024-01-30T03:24:30;101323.96;;;9.40;60.58
62055;BME280;48653;51.742;-1.256;2024-01-30T03:26:55;101328.04;;;9.18;61.44
62055;BME280;48653;51.742;-1.256;2024-01-30T03:29:20;101332.96;;;8.39;63.54
62055;BME280;48653;51.742;-1.256;2024-01-30T03:31:45;101331.08;;;8.95;61.36
62055;BME280;48653;51.742;-1.256;2024-01-30T03:34:11;101340.16;;;7.62;65.15
62055;BME280;48653;51.742;-1.256;2024-01-30T03:36:36;101341.85;;;7.88;64.47
62055;BME280;48653;51.742;-1.256;2024-01-30T03:39:02;101347.11;;;8.05;64.13
62055;BME280;48653;51.742;-1.256;2024-01-30T03:41:26;101347.90;;;7.59;65.02
62055;BME280;48653;51.742;-1.256;2024-01-30T03:43:51;101347.49;;;7.08;66.42
62055;BME280;48653;51.742;-1.256;2024-01-30T03:46:16;101348.91;;;8.07;63.85
62055;BME280;48653;51.742;-1.256;2024-01-30T03:48:42;101349.23;;;7.58;64.68
62055;BME280;48653;51.742;-1.256;2024-01-30T03:51:07;101361.74;;;7.68;64.48
62055;BME280;48653;51.742;-1.256;2024-01-30T03:53:32;101360.06;;;7.36;66.26
62055;BME280;48653;51.742;-1.256;2024-01-30T03:55:57;101359.23;;;6.98;67.34
62055;BME280;48653;51.742;-1.256;2024-01-30T03:58:22;101357.81;;;7.92;65.08
62055;BME280;48653;51.742;-1.256;2024-01-30T04:00:47;101358.14;;;8.49;62.33
62055;BME280;48653;51.742;-1.256;2024-01-30T04:03:12;101362.50;;;8.09;62.68
62055;BME280;48653;51.742;-1.256;2024-01-30T04:05:37;101364.60;;;8.36;61.87
62055;BME280;48653;51.742;-1.256;2024-01-30T04:08:03;101365.06;;;8.10;63.00
62055;BME280;48653;51.742;-1.256;2024-01-30T04:10:27;101372.75;;;8.35;62.45
62055;BME280;48653;51.742;-1.256;2024-01-30T04:12:53;101376.43;;;8.48;61.61
62055;BME280;48653;51.742;-1.256;2024-01-30T04:15:18;101375.25;;;7.87;63.52
62055;BME280;48653;51.742;-1.256;2024-01-30T04:17:43;101372.82;;;8.13;62.86
62055;BME280;48653;51.742;-1.256;2024-01-30T04:20:13;101378.59;;;7.85;63.05
62055;BME280;48653;51.742;-1.256;2024-01-30T04:22:33;101383.72;;;8.39;62.20
62055;BME280;48653;51.742;-1.256;2024-01-30T04:24:58;101380.79;;;8.35;62.12
62055;BME280;48653;51.742;-1.256;2024-01-30T04:27:23;101390.73;;;8.11;61.70
62055;BME280;48653;51.742;-1.256;2024-01-30T04:29:49;101394.78;;;7.44;63.63
62055;BME280;48653;51.742;-1.256;2024-01-30T04:32:13;101395.61;;;8.20;62.63
62055;BME280;48653;51.742;-1.256;2024-01-30T04:34:38;101397.99;;;6.40;67.03
62055;BME280;48653;51.742;-1.256;2024-01-30T04:37:04;101396.48;;;7.50;64.90
62055;BME280;48653;51.742;-1.256;2024-01-30T04:39:29;101404.05;;;7.21;65.02
62055;BME280;48653;51.742;-1.256;2024-01-30T04:41:54;101413.54;;;7.27;64.57
62055;BME280;48653;51.742;-1.256;2024-01-30T04:44:19;101422.85;;;7.48;64.37
62055;BME280;48653;51.742;-1.256;2024-01-30T04:46:44;101422.34;;;7.00;65.83
62055;BME280;48653;51.742;-1.256;2024-01-30T04:49:10;101427.92;;;7.77;64.07
62055;BME280;48653;51.742;-1.256;2024-01-30T04:51:35;101431.58;;;7.62;63.78
62055;BME280;48653;51.742;-1.256;2024-01-30T04:54:00;101438.24;;;7.12;65.35
62055;BME280;48653;51.742;-1.256;2024-01-30T04:56:25;101444.67;;;7.46;64.39
62055;BME280;48653;51.742;-1.256;2024-01-30T04:58:50;101449.04;;;6.82;65.12
62055;BME280;48653;51.742;-1.256;2024-01-30T05:01:15;101447.99;;;7.02;65.11
62055;BME280;48653;51.742;-1.256;2024-01-30T05:03:40;101453.61;;;6.89;65.89
62055;BME280;48653;51.742;-1.256;2024-01-30T05:06:06;101462.29;;;6.81;65.70
62055;BME280;48653;51.742;-1.256;2024-01-30T05:08:30;101467.25;;;6.64;64.72
62055;BME280;48653;51.742;-1.256;2024-01-30T05:10:56;101478.54;;;7.31;63.52
62055;BME280;48653;51.742;-1.256;2024-01-30T05:13:21;101482.64;;;7.55;62.25
62055;BME280;48653;51.742;-1.256;2024-01-30T05:15:47;101488.05;;;7.31;61.98
62055;BME280;48653;51.742;-1.256;2024-01-30T05:18:13;101502.26;;;6.52;62.98
62055;BME280;48653;51.742;-1.256;2024-01-30T05:20:37;101511.41;;;7.08;61.77
62055;BME280;48653;51.742;-1.256;2024-01-30T05:23:03;101516.31;;;6.66;60.96
62055;BME280;48653;51.742;-1.256;2024-01-30T05:25:28;101518.47;;;6.76;59.29
62055;BME280;48653;51.742;-1.256;2024-01-30T05:27:53;101535.06;;;6.50;59.78
62055;BME280;48653;51.742;-1.256;2024-01-30T05:30:18;101543.36;;;6.00;60.60
62055;BME280;48653;51.742;-1.256;2024-01-30T05:32:43;101551.02;;;6.09;59.35
62055;BME280;48653;51.742;-1.256;2024-01-30T05:35:08;101557.75;;;5.78;59.45
62055;BME280;48653;51.742;-1.256;2024-01-30T05:37:33;101565.43;;;5.88;60.53
62055;BME280;48653;51.742;-1.256;2024-01-30T05:39:58;101569.34;;;5.87;61.01
62055;BME280;48653;51.742;-1.256;2024-01-30T05:42:23;101569.07;;;6.27;58.46
62055;BME280;48653;51.742;-1.256;2024-01-30T05:44:48;101575.06;;;6.55;58.26
62055;BME280;48653;51.742;-1.256;2024-01-30T05:47:13;101577.00;;;5.94;59.45
62055;BME280;48653;51.742;-1.256;2024-01-30T05:49:38;101584.35;;;5.29;60.12
62055;BME280;48653;51.742;-1.256;2024-01-30T05:52:05;101598.87;;;5.17;61.52
62055;BME280;48653;51.742;-1.256;2024-01-30T05:54:29;101600.34;;;5.05;60.74
62055;BME280;48653;51.742;-1.256;2024-01-30T05:56:54;101601.01;;;5.08;60.83
62055;BME280;48653;51.742;-1.256;2024-01-30T05:59:19;101603.78;;;5.51;59.82
62055;BME280;48653;51.742;-1.256;2024-01-30T06:01:46;101602.13;;;5.77;58.60
62055;BME280;48653;51.742;-1.256;2024-01-30T06:04:10;101602.14;;;5.26;59.35
62055;BME280;48653;51.742;-1.256;2024-01-30T06:06:35;101607.67;;;5.39;60.04
62055;BME280;48653;51.742;-1.256;2024-01-30T06:09:01;101615.52;;;5.22;59.68
62055;BME280;48653;51.742;-1.256;2024-01-30T06:11:25;101628.73;;;4.84;60.70
62055;BME280;48653;51.742;-1.256;2024-01-30T06:13:50;101628.98;;;5.88;59.42
62055;BME280;48653;51.742;-1.256;2024-01-30T06:16:15;101629.32;;;5.34;59.85
62055;BME280;48653;51.742;-1.256;2024-01-30T06:18:40;101642.44;;;5.80;59.20
62055;BME280;48653;51.742;-1.256;2024-01-30T06:21:05;101650.59;;;5.51;60.01
62055;BME280;48653;51.742;-1.256;2024-01-30T06:23:30;101661.60;;;5.43;59.87
62055;BME280;48653;51.742;-1.256;2024-01-30T06:25:55;101658.03;;;5.51;59.10
62055;BME280;48653;51.742;-1.256;2024-01-30T06:28:20;101652.24;;;4.89;60.94
62055;BME280;48653;51.742;-1.256;2024-01-30T06:30:46;101661.68;;;5.12;60.80
62055;BME280;48653;51.742;-1.256;2024-01-30T06:33:12;101665.72;;;4.75;61.59
62055;BME280;48653;51.742;-1.256;2024-01-30T06:35:36;101669.16;;;4.93;60.87
62055;BME280;48653;51.742;-1.256;2024-01-30T06:38:01;101676.03;;;5.06;60.75
62055;BME280;48653;51.742;-1.256;2024-01-30T06:40:26;101685.59;;;5.08;60.71
62055;BME280;48653;51.742;-1.256;2024-01-30T06:42:51;101693.20;;;5.02;60.84
62055;BME280;48653;51.742;-1.256;2024-01-30T06:45:16;101700.02;;;5.01;60.40
62055;BME280;48653;51.742;-1.256;2024-01-30T06:47:41;101710.86;;;5.64;59.05
62055;BME280;48653;51.742;-1.256;2024-01-30T06:50:07;101715.93;;;5.81;59.23
62055;BME280;48653;51.742;-1.256;2024-01-30T06:52:31;101726.55;;;5.73;59.27
62055;BME280;48653;51.742;-1.256;2024-01-30T06:54:57;101727.72;;;5.75;58.30
62055;BME280;48653;51.742;-1.256;2024-01-30T06:57:22;101737.72;;;5.90;58.34
62055;BME280;48653;51.742;-1.256;2024-01-30T06:59:47;101740.65;;;5.90;58.17
62055;BME280;48653;51.742;-1.256;2024-01-30T07:02:12;101742.91;;;5.59;59.75
62055;BME280;48653;51.742;-1.256;2024-01-30T07:04:37;101747.67;;;5.69;59.53
62055;BME280;48653;51.742;-1.256;2024-01-30T07:07:03;101758.18;;;6.10;57.93
62055;BME280;48653;51.742;-1.256;2024-01-30T07:09:27;101756.16;;;6.02;57.68
62055;BME280;48653;51.742;-1.256;2024-01-30T07:11:53;101760.09;;;5.90;57.26
62055;BME280;48653;51.742;-1.256;2024-01-30T07:14:17;101762.31;;;6.20;57.36
62055;BME280;48653;51.742;-1.256;2024-01-30T07:16:43;101767.42;;;5.78;57.60
62055;BME280;48653;51.742;-1.256;2024-01-30T07:19:07;101765.81;;;6.15;56.91
62055;BME280;48653;51.742;-1.256;2024-01-30T07:21:33;101767.72;;;5.92;56.52
62055;BME280;48653;51.742;-1.256;2024-01-30T07:23:58;101769.47;;;6.40;56.67
62055;BME280;48653;51.742;-1.256;2024-01-30T07:26:25;101782.67;;;6.25;56.26
62055;BME280;48653;51.742;-1.256;2024-01-30T07:28:48;101783.13;;;6.38;55.10
62055;BME280;48653;51.742;-1.256;2024-01-30T07:31:13;101786.74;;;6.44;56.20
62055;BME280;48653;51.742;-1.256;2024-01-30T07:33:38;101794.03;;;5.79;57.29
62055;BME280;48653;51.742;-1.256;2024-01-30T07:36:04;101809.07;;;5.48;58.57
62055;BME280;48653;51.742;-1.256;2024-01-30T07:38:29;101810.59;;;5.80;57.84
62055;BME280;48653;51.742;-1.256;2024-01-30T07:40:53;101819.76;;;6.02;56.44
62055;BME280;48653;51.742;-1.256;2024-01-30T07:43:18;101825.99;;;6.17;55.72
62055;BME280;48653;51.742;-1.256;2024-01-30T07:45:44;101833.93;;;6.29;56.01
62055;BME280;48653;51.742;-1.256;2024-01-30T07:48:09;101838.84;;;6.35;55.51
62055;BME280;48653;51.742;-1.256;2024-01-30T07:50:34;101847.72;;;5.84;57.33
62055;BME280;48653;51.742;-1.256;2024-01-30T07:53:00;101852.44;;;5.99;56.72
62055;BME280;48653;51.742;-1.256;2024-01-30T07:55:24;101856.15;;;6.05;56.53
62055;BME280;48653;51.742;-1.256;2024-01-30T07:57:49;101859.71;;;5.55;58.24
62055;BME280;48653;51.742;-1.256;2024-01-30T08:00:15;101866.01;;;5.64;57.64
62055;BME280;48653;51.742;-1.256;2024-01-30T08:02:39;101863.75;;;5.60;58.16
62055;BME280;48653;51.742;-1.256;2024-01-30T08:05:05;101859.01;;;6.36;56.29
62055;BME280;48653;51.742;-1.256;2024-01-30T08:07:29;101864.17;;;5.95;57.39
62055;BME280;48653;51.742;-1.256;2024-01-30T08:09:54;101862.28;;;6.87;54.90
62055;BME280;48653;51.742;-1.256;2024-01-30T08:12:20;101872.06;;;6.54;55.24
62055;BME280;48653;51.742;-1.256;2024-01-30T08:14:45;101875.38;;;5.94;57.11
62055;BME280;48653;51.742;-1.256;2024-01-30T08:17:10;101873.64;;;6.73;55.07
62055;BME280;48653;51.742;-1.256;2024-01-30T08:19:35;101875.08;;;6.99;54.48
62055;BME280;48653;51.742;-1.256;2024-01-30T08:22:00;101878.07;;;6.67;55.10
62055;BME280;48653;51.742;-1.256;2024-01-30T08:24:25;101887.39;;;5.93;56.00
62055;BME280;48653;51.742;-1.256;2024-01-30T08:26:50;101890.34;;;6.37;55.26
62055;BME280;48653;51.742;-1.256;2024-01-30T08:29:15;101896.12;;;6.43;55.07
62055;BME280;48653;51.742;-1.256;2024-01-30T08:31:40;101903.37;;;7.02;54.35
62055;BME280;48653;51.742;-1.256;2024-01-30T08:34:06;101908.32;;;7.12;52.70
62055;BME280;48653;51.742;-1.256;2024-01-30T08:36:31;101916.68;;;7.00;52.95
62055;BME280;48653;51.742;-1.256;2024-01-30T08:38:56;101919.72;;;7.65;52.02
62055;BME280;48653;51.742;-1.256;2024-01-30T08:41:21;101924.95;;;8.29;50.74
62055;BME280;48653;51.742;-1.256;2024-01-30T08:43:46;101930.02;;;7.74;52.03
62055;BME280;48653;51.742;-1.256;2024-01-30T08:46:11;101934.04;;;6.50;54.06
62055;BME280;48653;51.742;-1.256;2024-01-30T08:48:36;101936.41;;;6.99;53.51
62055;BME280;48653;51.742;-1.256;2024-01-30T08:51:01;101940.58;;;7.26;53.40
62055;BME280;48653;51.742;-1.256;2024-01-30T08:53:26;101942.79;;;7.22;52.67
62055;BME280;48653;51.742;-1.256;2024-01-30T08:55:51;101944.37;;;7.46;52.70
62055;BME280;48653;51.742;-1.256;2024-01-30T08:58:17;101953.46;;;7.47;52.33
62055;BME280;48653;51.742;-1.256;2024-01-30T09:00:42;101954.85;;;6.66;54.19
62055;BME280;48653;51.742;-1.256;2024-01-30T09:03:06;101957.77;;;7.35;52.34
62055;BME280;48653;51.742;-1.256;2024-01-30T09:05:32;101967.83;;;6.91;53.93
62055;BME280;48653;51.742;-1.256;2024-01-30T09:07:57;101975.07;;;6.61;54.66
62055;BME280;48653;51.742;-1.256;2024-01-30T09:10:22;101986.46;;;6.77;54.10
62055;BME280;48653;51.742;-1.256;2024-01-30T09:12:47;101984.36;;;7.10;53.73
62055;BME280;48653;51.742;-1.256;2024-01-30T09:15:12;101989.05;;;6.65;53.95
62055;BME280;48653;51.742;-1.256;2024-01-30T09:17:37;101994.15;;;6.93;52.93
62055;BME280;48653;51.742;-1.256;2024-01-30T09:20:03;102002.54;;;8.08;50.78
62055;BME280;48653;51.742;-1.256;2024-01-30T09:22:27;102005.49;;;7.89;50.30
62055;BME280;48653;51.742;-1.256;2024-01-30T09:24:52;102009.01;;;8.10;49.64
62055;BME280;48653;51.742;-1.256;2024-01-30T09:27:18;102012.21;;;7.56;50.64
62055;BME280;48653;51.742;-1.256;2024-01-30T09:29:43;102010.99;;;7.41;50.89
62055;BME280;48653;51.742;-1.256;2024-01-30T09:32:08;102012.77;;;7.19;52.01
62055;BME280;48653;51.742;-1.256;2024-01-30T09:34:33;102021.06;;;7.28;51.93
62055;BME280;48653;51.742;-1.256;2024-01-30T09:36:59;102022.70;;;8.00;50.55
62055;BME280;48653;51.742;-1.256;2024-01-30T09:39:24;102030.19;;;7.30;51.43
62055;BME280;48653;51.742;-1.256;2024-01-30T09:41:51;102035.90;;;6.56;53.13
62055;BME280;48653;51.742;-1.256;2024-01-30T09:44:16;102039.93;;;7.19;51.81
62055;BME280;48653;51.742;-1.256;2024-01-30T09:46:39;102048.68;;;7.45;51.18
62055;BME280;48653;51.742;-1.256;2024-01-30T09:49:04;102052.13;;;6.75;52.14
62055;BME280;48653;51.742;-1.256;2024-01-30T09:51:30;102054.09;;;7.76;50.76
62055;BME280;48653;51.742;-1.256;2024-01-30T09:53:54;102059.12;;;6.81;51.63
62055;BME280;48653;51.742;-1.256;2024-01-30T09:56:19;102061.00;;;7.06;52.16
62055;BME280;48653;51.742;-1.256;2024-01-30T09:58:44;102064.32;;;6.97;52.18
62055;BME280;48653;51.742;-1.256;2024-01-30T10:01:09;102063.87;;;6.88;52.81
62055;BME280;48653;51.742;-1.256;2024-01-30T10:03:34;102063.47;;;7.40;51.55
62055;BME280;48653;51.742;-1.256;2024-01-30T10:05:59;102074.87;;;7.85;50.73
62055;BME280;48653;51.742;-1.256;2024-01-30T10:08:27;102080.01;;;7.91;50.20
62055;BME280;48653;51.742;-1.256;2024-01-30T10:10:50;102084.72;;;8.44;49.26
62055;BME280;48653;51.742;-1.256;2024-01-30T10:13:17;102087.63;;;7.56;50.66
62055;BME280;48653;51.742;-1.256;2024-01-30T10:15:40;102097.02;;;7.40;50.43
62055;BME280;48653;51.742;-1.256;2024-01-30T10:18:05;102103.06;;;7.18;50.55
62055;BME280;48653;51.742;-1.256;2024-01-30T10:20:30;102111.33;;;6.31;52.58
62055;BME280;48653;51.742;-1.256;2024-01-30T10:22:55;102112.63;;;7.45;50.98
62055;BME280;48653;51.742;-1.256;2024-01-30T10:25:21;102119.60;;;6.09;52.70
62055;BME280;48653;51.742;-1.256;2024-01-30T10:27:46;102122.52;;;7.00;51.96
62055;BME280;48653;51.742;-1.256;2024-01-30T10:30:11;102126.56;;;7.19;51.15
62055;BME280;48653;51.742;-1.256;2024-01-30T10:32:35;102128.21;;;6.95;51.66
62055;BME280;48653;51.742;-1.256;2024-01-30T10:35:01;102142.21;;;7.14;50.62
62055;BME280;48653;51.742;-1.256;2024-01-30T10:37:26;102149.42;;;7.28;50.65
62055;BME280;48653;51.742;-1.256;2024-01-30T10:39:53;102155.99;;;7.08;51.30
62055;BME280;48653;51.742;-1.256;2024-01-30T10:42:18;102158.36;;;7.08;50.55
62055;BME280;48653;51.742;-1.256;2024-01-30T10:44:52;102161.04;;;7.19;51.24
62055;BME280;48653;51.742;-1.256;2024-01-30T10:47:10;102165.02;;;7.79;49.80
62055;BME280;48653;51.742;-1.256;2024-01-30T10:49:32;102172.18;;;6.69;50.44
62055;BME280;48653;51.742;-1.256;2024-01-30T10:51:57;102174.97;;;6.96;50.42
62055;BME280;48653;51.742;-1.256;2024-01-30T10:54:23;102180.60;;;7.36;49.76
62055;BME280;48653;51.742;-1.256;2024-01-30T10:56:47;102185.03;;;7.42;48.70
62055;BME280;48653;51.742;-1.256;2024-01-30T10:59:12;102190.88;;;6.76;49.77
62055;BME280;48653;51.742;-1.256;2024-01-30T11:01:37;102191.25;;;7.62;48.44
62055;BME280;48653;51.742;-1.256;2024-01-30T11:04:02;102197.22;;;8.32;47.42
62055;BME280;48653;51.742;-1.256;2024-01-30T11:06:27;102207.07;;;7.91;47.66
62055;BME280;48653;51.742;-1.256;2024-01-30T11:09:01;102206.67;;;7.18;48.57
62055;BME280;48653;51.742;-1.256;2024-01-30T11:11:18;102208.19;;;7.24;48.43
62055;BME280;48653;51.742;-1.256;2024-01-30T11:13:43;102213.82;;;7.20;48.93
62055;BME280;48653;51.742;-1.256;2024-01-30T11:16:11;102213.35;;;6.64;49.11
62055;BME280;48653;51.742;-1.256;2024-01-30T11:18:35;102220.44;;;7.19;49.28
62055;BME280;48653;51.742;-1.256;2024-01-30T11:20:59;102228.05;;;6.89;49.33
62055;BME280;48653;51.742;-1.256;2024-01-30T11:23:23;102230.00;;;7.34;49.20
62055;BME280;48653;51.742;-1.256;2024-01-30T11:25:49;102231.33;;;7.30;48.99
62055;BME280;48653;51.742;-1.256;2024-01-30T11:28:14;102229.70;;;6.67;49.40
62055;BME280;48653;51.742;-1.256;2024-01-30T11:30:39;102231.65;;;6.85;49.20
62055;BME280;48653;51.742;-1.256;2024-01-30T11:33:05;102236.57;;;6.87;49.20
62055;BME280;48653;51.742;-1.256;2024-01-30T11:35:31;102240.06;;;6.23;49.60
62055;BME280;48653;51.742;-1.256;2024-01-30T11:37:55;102240.99;;;5.84;50.62
62055;BME280;48653;51.742;-1.256;2024-01-30T11:40:19;102248.51;;;6.19;49.85
62055;BME280;48653;51.742;-1.256;2024-01-30T11:42:44;102250.96;;;6.76;49.06
62055;BME280;48653;51.742;-1.256;2024-01-30T11:45:09;102242.81;;;7.16;48.41
62055;BME280;48653;51.742;-1.256;2024-01-30T11:47:35;102236.78;;;6.12;49.36
62055;BME280;48653;51.742;-1.256;2024-01-30T11:49:59;102229.68;;;6.90;49.10
62055;BME280;48653;51.742;-1.256;2024-01-30T11:52:25;102231.40;;;7.21;48.50
62055;BME280;48653;51.742;-1.256;2024-01-30T11:54:50;102230.62;;;6.93;48.41
62055;BME280;48653;51.742;-1.256;2024-01-30T11:57:15;102231.12;;;7.28;48.48
62055;BME280;48653;51.742;-1.256;2024-01-30T11:59:40;102235.94;;;6.42;49.29
62055;BME280;48653;51.742;-1.256;2024-01-30T12:02:05;102239.64;;;6.33;49.19
62055;BME280;48653;51.742;-1.256;2024-01-30T12:04:30;102250.30;;;7.12;48.29
62055;BME280;48653;51.742;-1.256;2024-01-30T12:06:55;102242.77;;;6.21;50.49
62055;BME280;48653;51.742;-1.256;2024-01-30T12:09:20;102252.51;;;6.36;50.07
62055;BME280;48653;51.742;-1.256;2024-01-30T12:11:45;102256.53;;;6.03;50.56
62055;BME280;48653;51.742;-1.256;2024-01-30T12:14:12;102255.12;;;5.85;51.01
62055;BME280;48653;51.742;-1.256;2024-01-30T12:16:35;102257.65;;;6.46;49.74
62055;BME280;48653;51.742;-1.256;2024-01-30T12:19:01;102262.16;;;7.31;48.56
62055;BME280;48653;51.742;-1.256;2024-01-30T12:21:26;102265.56;;;6.44;48.88
62055;BME280;48653;51.742;-1.256;2024-01-30T12:26:16;102270.63;;;6.36;48.99
62055;BME280;48653;51.742;-1.256;2024-01-30T12:28:47;102272.31;;;6.51;49.87
62055;BME280;48653;51.742;-1.256;2024-01-30T12:31:06;102275.35;;;6.88;49.35
62055;BME280;48653;51.742;-1.256;2024-01-30T12:33:31;102270.94;;;7.27;48.15
62055;BME280;48653;51.742;-1.256;2024-01-30T12:35:56;102269.91;;;7.36;47.66
62055;BME280;48653;51.742;-1.256;2024-01-30T12:38:21;102268.56;;;7.18;47.59
62055;BME280;48653;51.742;-1.256;2024-01-30T12:40:46;102275.44;;;7.18;48.31
62055;BME280;48653;51.742;-1.256;2024-01-30T12:43:11;102277.50;;;7.27;47.85